Time;durP1;ratioP1;P1;durP2;ratioP2;P2;SDS_P1;SDS_P2;PMS_P1;PMS_P2;Temp;Humidity;BMP_temperature;BMP_pressure;BME280_temperature;BME280_humidity;BME280_pressure;Samples;Min_cycle;Max_cycle;Signal;HPM_P1;HPM_P2
2021/11/01 00:01:58;;;;;;;91.80;52.42;;;;;;;12.67;76.47;100614.16;5017838;28;20500;-77
2021/11/01 00:04:43;;;;;;;87.05;51.92;;;;;;;12.62;76.75;100598.81;5013492;28;20042;-78
2021/11/01 00:07:28;;;;;;;73.80;39.85;;;;;;;12.59;76.96;100595.94;5019002;28;20121;-78
2021/11/01 00:10:13;;;;;;;73.57;41.95;;;;;;;12.59;77.08;100591.28;5023583;28;20037;-77
2021/11/01 00:12:58;;;;;;;86.97;50.50;;;;;;;12.62;76.94;100581.63;5023125;28;20045;-78
2021/11/01 00:15:43;;;;;;;74.80;40.03;;;;;;;12.68;76.80;100586.56;5018849;28;20041;-78
2021/11/01 00:18:28;;;;;;;73.68;40.65;;;;;;;12.58;76.88;100580.69;5007824;28;20456;-79
2021/11/01 00:21:13;;;;;;;72.65;41.80;;;;;;;12.55;77.48;100582.16;5019317;28;20045;-78
2021/11/01 00:23:58;;;;;;;67.97;38.55;;;;;;;12.54;77.45;100577.84;5015956;28;20061;-78
2021/11/01 00:26:43;;;;;;;;;;;;;;;12.61;77.11;100563.66;5017658;28;20046;-78
2021/11/01 00:29:27;;;;;;;90.53;51.10;;;;;;;12.51;77.58;100567.59;5021159;28;19913;-78
2021/11/01 00:32:12;;;;;;;90.60;52.85;;;;;;;12.51;77.74;100578.50;5013062;28;20042;-79
2021/11/01 00:34:58;;;;;;;72.32;41.65;;;;;;;12.44;77.77;100570.06;5017409;28;20500;-78
2021/11/01 00:37:45;;;;;;;89.25;51.63;;;;;;;12.51;77.66;100573.03;5025370;28;20412;-79
2021/11/01 00:40:30;;;;;;;89.25;52.13;;;;;;;12.47;77.61;100566.66;5019189;28;20050;-78
2021/11/01 00:43:14;;;;;;;;;;;;;;;12.48;77.53;100567.47;5014238;28;20420;-79
2021/11/01 00:45:59;;;;;;;92.43;51.10;;;;;;;12.46;77.70;100559.59;5001873;28;19917;-79
2021/11/01 00:48:44;;;;;;;97.45;52.72;;;;;;;12.50;77.21;100568.72;5013257;28;20042;-78
2021/11/01 00:51:29;;;;;;;94.60;50.30;;;;;;;12.47;77.43;100561.19;5020388;28;20508;-77
2021/11/01 00:54:13;;;;;;;;;;;;;;;12.51;77.27;100556.69;5013324;28;20042;-77
2021/11/01 00:56:58;;;;;;;93.85;51.60;;;;;;;12.51;76.88;100544.97;5014600;28;19913;-79
2021/11/01 00:59:43;;;;;;;77.30;41.50;;;;;;;12.55;77.08;100543.16;4996940;28;20050;-80
2021/11/01 01:02:34;;;;;;;93.13;52.58;;;;;;;12.47;77.44;100533.94;5009231;28;20050;-79
2021/11/01 01:05:19;;;;;;;90.60;52.20;;;;;;;12.52;77.38;100533.72;5017164;28;20042;-80
2021/11/01 01:08:03;;;;;;;69.72;41.08;;;;;;;12.55;77.24;100532.25;5016360;28;20042;-79
2021/11/01 01:10:49;;;;;;;90.22;52.75;;;;;;;12.55;77.45;100524.06;5031223;28;20050;-80
2021/11/01 01:13:37;;;;;;;97.53;55.05;;;;;;;12.58;77.25;100526.94;5011537;28;20050;-80
2021/11/01 01:16:26;;;;;;;96.00;53.90;;;;;;;12.59;76.97;100509.47;5016842;28;20045;-80
2021/11/01 01:19:17;;;;;;;85.72;51.30;;;;;;;12.62;77.34;100516.97;5017926;28;20045;-80
2021/11/01 01:22:14;;;;;;;85.22;51.83;;;;;;;12.55;77.47;100511.22;5027708;28;20531;-79
2021/11/01 01:25:15;;;;;;;83.93;49.60;;;;;;;12.54;77.29;100501.47;5022037;28;20493;-79
2021/11/01 01:28:02;;;;;;;90.00;51.85;;;;;;;12.48;77.66;100500.06;5016445;28;20041;-79
2021/11/01 01:30:47;;;;;;;73.22;41.70;;;;;;;12.47;78.25;100484.03;5023719;28;20046;-80
2021/11/01 01:33:32;;;;;;;91.20;53.22;;;;;;;12.46;78.19;100472.31;5019612;28;20046;-80
2021/11/01 01:36:16;;;;;;;;;;;;;;;12.54;78.22;100471.47;5012249;28;20053;-79
2021/11/01 01:39:02;;;;;;;89.35;52.20;;;;;;;12.57;78.08;100459.88;5018044;28;19914;-80
2021/11/01 01:41:47;;;;;;;94.90;52.28;;;;;;;12.59;78.26;100454.09;5015872;28;20037;-79
2021/11/01 01:44:32;;;;;;;93.57;52.50;;;;;;;12.59;78.55;100449.44;5023610;28;20042;-79
2021/11/01 01:47:17;;;;;;;94.72;56.08;;;;;;;12.57;78.43;100448.16;5015207;28;20050;-80
2021/11/01 01:50:04;;;;;;;92.03;55.35;;;;;;;12.57;78.19;100435.34;5019050;28;20045;-79
2021/11/01 01:52:49;;;;;;;93.50;55.75;;;;;;;12.62;78.32;100434.31;5016334;28;20416;-80
2021/11/01 01:55:34;;;;;;;;;;;;;;;12.64;78.41;100421.97;5024185;28;20033;-81
2021/11/01 01:58:22;;;;;;;106.53;54.80;;;;;;;12.62;78.58;100420.69;4995267;28;19914;-81
2021/11/01 02:01:15;;;;;;;101.90;56.15;;;;;;;12.55;78.94;100418.50;4988195;28;20046;-80
2021/11/01 02:04:01;;;;;;;96.68;55.42;;;;;;;12.59;78.45;100411.25;5014088;28;20058;-81
2021/11/01 02:07:10;;;;;;;95.80;54.63;;;;;;;12.63;78.49;100414.91;5016140;28;20045;-79
2021/11/01 02:10:07;;;;;;;96.18;56.45;;;;;;;12.62;78.56;100413.31;5034252;28;20045;-80
2021/11/01 02:12:57;;;;;;;100.28;57.70;;;;;;;12.59;78.64;100414.00;5029834;28;20029;-80
2021/11/01 02:15:52;;;;;;;106.07;57.22;;;;;;;12.60;78.82;100410.09;5021674;28;20045;-80
2021/11/01 02:18:40;;;;;;;106.38;57.45;;;;;;;12.58;79.21;100417.84;5026683;28;20042;-79
2021/11/01 02:21:47;;;;;;;94.97;54.70;;;;;;;12.60;79.28;100412.81;5020394;28;20053;-79
2021/11/01 02:24:58;;;;;;;96.65;56.00;;;;;;;12.63;78.99;100411.38;5012532;28;20677;-79
2021/11/01 02:27:44;;;;;;;100.88;55.80;;;;;;;12.63;79.19;100404.00;5014096;28;20045;-79
2021/11/01 02:30:30;;;;;;;103.13;55.78;;;;;;;12.67;78.90;100404.91;5009826;28;20042;-78
2021/11/01 02:33:17;;;;;;;96.43;54.78;;;;;;;12.81;78.26;100385.50;5003359;28;20045;-80
2021/11/01 02:36:03;;;;;;;97.72;57.92;;;;;;;12.83;78.02;100385.97;5015266;28;20038;-79
2021/11/01 02:38:51;;;;;;;99.57;58.10;;;;;;;12.76;78.46;100388.44;5012550;28;20046;-80
2021/11/01 02:41:36;;;;;;;100.25;57.90;;;;;;;12.70;78.66;100390.59;5033990;28;20046;-80
2021/11/01 02:44:22;;;;;;;79.90;42.65;;;;;;;12.68;78.84;100383.88;5017118;28;20049;-80
2021/11/01 02:47:06;;;;;;;95.45;55.80;;;;;;;12.66;78.96;100378.75;5019274;28;20045;-81
2021/11/01 02:49:51;;;;;;;;;;;;;;;12.68;78.84;100373.78;5020072;28;20780;-80
2021/11/01 02:52:37;;;;;;;104.15;56.65;;;;;;;12.59;79.28;100362.16;5012503;28;20530;-80
2021/11/01 02:55:22;;;;;;;97.47;55.80;;;;;;;12.58;79.88;100371.47;5025008;28;20038;-79
2021/11/01 02:58:07;;;;;;;97.57;57.55;;;;;;;12.56;80.39;100373.72;5012611;28;20042;-81
2021/11/01 03:00:52;;;;;;;76.97;42.83;;;;;;;12.58;80.70;100373.41;5015895;28;20046;-80
2021/11/01 03:03:38;;;;;;;79.97;44.08;;;;;;;12.62;80.38;100371.59;5019772;28;20049;-79
2021/11/01 03:06:26;;;;;;;101.25;57.65;;;;;;;12.62;80.70;100366.13;5003741;28;20045;-80
2021/11/01 03:09:12;;;;;;;115.38;63.53;;;;;;;12.57;80.66;100367.16;5007893;28;20499;-80
2021/11/01 03:12:04;;;;;;;106.93;61.20;;;;;;;12.60;80.92;100360.19;5019159;28;20046;-80
2021/11/01 03:14:53;;;;;;;113.20;59.13;;;;;;;12.59;80.85;100359.44;5018988;28;20049;-79
2021/11/01 03:17:44;;;;;;;111.65;60.42;;;;;;;12.61;80.74;100365.34;5017165;28;20042;-80
2021/11/01 03:20:33;;;;;;;103.88;58.83;;;;;;;12.55;80.66;100342.13;5012120;28;20045;-81
2021/11/01 03:23:22;;;;;;;105.90;59.80;;;;;;;12.60;80.76;100346.56;5018558;28;20504;-79
2021/11/01 03:26:11;;;;;;;106.65;61.38;;;;;;;12.59;80.52;100339.53;5017494;28;20046;-79
2021/11/01 03:29:00;;;;;;;112.55;61.88;;;;;;;12.59;80.48;100339.53;5009566;28;20045;-79
2021/11/01 03:31:47;;;;;;;113.00;64.63;;;;;;;12.57;80.50;100339.88;5017968;28;20369;-79
2021/11/01 03:34:33;;;;;;;104.93;60.17;;;;;;;12.54;80.50;100346.00;5012519;28;20050;-79
2021/11/01 03:37:19;;;;;;;100.15;57.67;;;;;;;12.54;80.97;100346.00;5016030;28;20484;-80
2021/11/01 03:40:05;;;;;;;110.20;59.30;;;;;;;12.58;80.07;100346.91;5022925;28;20041;-80
2021/11/01 03:42:54;;;;;;;103.45;58.15;;;;;;;12.56;80.09;100341.00;5020327;28;20038;-80
2021/11/01 03:45:39;;;;;;;100.07;58.53;;;;;;;12.56;79.96;100346.44;5018115;28;20045;-79
2021/11/01 03:48:24;;;;;;;;;;;;;;;12.58;80.11;100348.84;5017257;28;20046;-79
2021/11/01 03:51:13;;;;;;;78.65;43.97;;;;;;;12.52;80.25;100350.19;5017108;28;20295;-79
2021/11/01 03:53:58;;;;;;;101.20;56.40;;;;;;;12.51;80.38;100343.94;5015547;28;20046;-80
2021/11/01 03:56:44;;;;;;;102.70;56.55;;;;;;;12.52;80.19;100356.44;5017729;28;20045;-80
2021/11/01 03:59:29;;;;;;;109.95;60.35;;;;;;;12.49;80.29;100351.69;5019711;28;20050;-80
2021/11/01 04:02:18;;;;;;;75.93;43.85;;;;;;;12.52;80.27;100356.44;5016319;28;20042;-79
2021/11/01 04:05:04;;;;;;;106.15;58.45;;;;;;;12.50;79.97;100357.91;5014788;28;20443;-79
2021/11/01 04:07:51;;;;;;;111.93;60.25;;;;;;;12.51;80.13;100348.59;5013795;28;20050;-80
2021/11/01 04:10:37;;;;;;;84.60;45.38;;;;;;;12.52;80.05;100350.19;4998411;28;20416;-79
2021/11/01 04:13:23;;;;;;;113.53;60.22;;;;;;;12.49;80.48;100340.78;5018798;28;20045;-80
2021/11/01 04:16:13;;;;;;;101.70;55.80;;;;;;;12.50;80.27;100347.00;5006973;28;20034;-80
2021/11/01 04:19:09;;;;;;;102.22;56.13;;;;;;;12.47;80.67;100342.22;5004160;28;20046;-79
2021/11/01 04:21:55;;;;;;;95.05;53.70;;;;;;;12.46;80.89;100341.41;5016930;28;20034;-80
2021/11/01 04:24:40;;;;;;;104.03;55.55;;;;;;;12.44;80.86;100336.31;5021711;28;20049;-80
2021/11/01 04:27:25;;;;;;;77.25;42.83;;;;;;;12.45;80.94;100339.81;5010795;28;20046;-80
2021/11/01 04:30:11;;;;;;;107.35;56.65;;;;;;;12.44;80.97;100327.34;5021241;28;20041;-79
2021/11/01 04:33:00;;;;;;;103.72;56.35;;;;;;;12.48;80.49;100330.19;5003857;28;20043;-80
2021/11/01 04:35:45;;;;;;;103.38;55.30;;;;;;;12.49;80.79;100329.06;5077267;23;20049;-79
2021/11/01 04:53:27;;;;;;;100.70;54.85;;;;;;;12.44;80.33;100321.91;5065458;28;20045;-79
2021/11/01 04:56:13;;;;;;;107.10;55.85;;;;;;;12.47;80.29;100320.41;5057531;28;20041;-77
2021/11/01 04:58:58;;;;;;;106.05;57.88;;;;;;;12.42;80.27;100319.50;5056888;28;20044;-79
2021/11/01 05:01:47;;;;;;;98.53;58.80;;;;;;;12.44;80.27;100328.13;5060955;28;20037;-79
2021/11/01 05:04:35;;;;;;;104.10;57.88;;;;;;;12.42;80.48;100322.22;5036044;28;20045;-79
2021/11/01 05:07:20;;;;;;;100.57;58.63;;;;;;;12.48;80.46;100311.91;5043079;28;20063;-78
2021/11/01 05:10:14;;;;;;;103.63;57.13;;;;;;;12.44;80.81;100309.03;5057570;28;20064;-79
2021/11/01 05:13:04;;;;;;;99.18;54.20;;;;;;;12.47;80.74;100309.50;5066880;28;20036;-78
2021/11/01 05:16:15;;;;;;;97.10;56.17;;;;;;;12.47;80.75;100309.50;5035030;28;20045;-78
2021/11/01 05:19:04;;;;;;;80.67;42.17;;;;;;;12.47;80.36;100304.03;5059870;28;20041;-80
2021/11/01 05:25:02;;;;;;;106.13;55.53;;;;;;;12.55;79.77;100282.13;5045756;28;20045;-80
2021/11/01 05:30:41;;;;;;;98.45;53.90;;;;;;;12.60;78.78;100272.91;5050336;28;20041;-78
2021/11/01 05:36:17;;;;;;;110.32;58.47;;;;;;;12.38;80.08;100264.03;5045107;28;20036;-79
2021/11/01 05:39:03;;;;;;;105.95;57.97;;;;;;;12.38;80.35;100260.53;5041490;28;20053;-79
2021/11/01 05:41:48;;;;;;;114.30;59.05;;;;;;;12.32;80.35;100259.13;5044078;28;20045;-80
2021/11/01 05:44:33;;;;;;;;;;;;;;;12.35;80.53;100259.25;5051275;28;20044;-80
2021/11/01 05:47:18;;;;;;;86.35;46.17;;;;;;;12.27;81.00;100262.09;5051029;28;20471;-78
2021/11/01 05:50:04;;;;;;;87.78;47.45;;;;;;;12.23;81.49;100258.44;5051627;28;20045;-79
2021/11/01 05:52:49;;;;;;;113.85;61.35;;;;;;;12.28;81.40;100263.69;5031519;28;20041;-78
2021/11/01 05:59:00;;;;;;;116.10;61.30;;;;;;;12.30;81.27;100251.28;5043528;28;20045;-79
2021/11/01 06:13:45;;;;;;;111.93;60.63;;;;;;;12.41;80.13;100251.66;5020344;28;20531;-78
2021/11/01 06:16:29;;;;;;;;;;;;;;;12.31;80.21;100250.16;5050551;28;20282;-79
2021/11/01 06:19:14;;;;;;;107.55;58.30;;;;;;;12.34;80.17;100237.78;5053067;28;19913;-79
2021/11/01 06:21:59;;;;;;;93.43;47.42;;;;;;;12.33;80.15;100238.94;5049613;28;20049;-80
2021/11/01 06:24:49;;;;;;;86.72;47.03;;;;;;;12.41;79.47;100246.19;5051476;28;20390;-80
2021/11/01 06:27:36;;;;;;;119.68;61.70;;;;;;;12.31;79.72;100235.72;5039479;28;20034;-79
2021/11/01 06:30:31;;;;;;;115.97;61.47;;;;;;;12.36;79.73;100238.22;5035600;28;20495;-80
2021/11/01 06:33:28;;;;;;;;;;;;;;;12.29;80.20;100233.34;5024648;28;20042;-79
2021/11/01 06:39:28;;;;;;;127.72;63.72;;;;;;;12.31;80.26;100217.44;5052336;28;20037;-79
2021/11/01 06:42:21;;;;;;;113.13;61.38;;;;;;;12.29;80.54;100214.25;5042624;28;20499;-80
2021/11/01 06:57:15;;;;;;;110.05;57.58;;;;;;;12.24;80.50;100214.47;5018119;28;20037;-80
2021/11/01 07:15:54;;;;;;;108.38;55.75;;;;;;;12.13;80.99;100215.25;5048982;28;20041;-79
2021/11/01 07:18:36;;;;;;;101.22;55.22;;;;;;;12.16;80.68;100220.03;5052286;28;20041;-79
2021/11/01 07:24:45;;;;;;;108.60;57.88;;;;;;;12.13;80.65;100221.50;5034297;28;20049;-80
2021/11/01 09:04:41;;;;;;;101.18;54.05;;;;;;;11.96;82.69;100069.91;5036824;28;20044;-79
2021/11/01 09:07:59;;;;;;;93.20;48.60;;;;;;;12.02;82.64;100069.66;5063969;28;20044;-78
2021/11/01 09:20:05;;;;;;;93.50;49.25;;;;;;;12.14;82.53;100047.88;5062179;28;20041;-79
2021/11/01 09:28:49;;;;;;;86.57;47.97;;;;;;;12.06;82.89;100046.03;5048835;28;20446;-79
2021/11/01 09:43:31;;;;;;;87.07;46.75;;;;;;;12.12;82.69;100014.72;5049460;28;20427;-80
2021/11/01 09:46:15;;;;;;;81.65;43.92;;;;;;;12.07;82.35;100001.31;5061650;28;20040;-80
2021/11/01 09:49:33;;;;;;;81.72;43.50;;;;;;;12.07;82.48;100002.13;5025941;28;20045;-79
2021/11/01 09:52:12;;;;;;;76.07;41.92;;;;;;;12.00;82.48;100002.69;5035057;28;20399;-78
2021/11/01 09:55:03;;;;;;;84.22;37.90;;;;;;;12.57;83.29;99989.97;5030436;28;20053;-77
2021/11/01 10:00:52;;;;;;;82.90;39.47;;;;;;;13.48;79.83;99980.75;5055652;28;20415;-78
2021/11/01 10:03:42;;;;;;;73.47;40.63;;;;;;;12.96;77.61;99975.47;5064388;28;20048;-77
2021/11/01 10:06:28;;;;;;;74.75;41.30;;;;;;;12.76;80.33;99971.00;5059001;28;20048;-78
2021/11/01 10:09:14;;;;;;;66.28;37.60;;;;;;;12.56;79.45;99947.44;5051417;28;20053;-78
2021/11/01 10:11:59;;;;;;;49.13;29.48;;;;;;;12.55;79.92;99954.84;5056327;28;20051;-77
2021/11/01 10:14:45;;;;;;;;;;;;;;;12.47;80.60;99947.59;5053937;28;20048;-77
2021/11/01 10:17:34;;;;;;;54.67;29.77;;;;;;;12.42;80.73;99931.50;5046048;28;19913;-79
2021/11/01 10:20:20;;;;;;;64.28;35.78;;;;;;;12.41;81.08;99919.78;5041057;28;20111;-77
2021/11/01 10:23:20;;;;;;;64.72;36.97;;;;;;;12.42;81.20;99926.03;5061715;28;20075;-76
2021/11/01 10:26:08;;;;;;;64.43;34.65;;;;;;;12.48;80.99;99912.94;5061138;28;20604;-76
2021/11/01 10:28:53;;;;;;;66.90;37.83;;;;;;;12.49;81.08;99911.81;5043563;28;20048;-77
2021/11/01 10:31:43;;;;;;;;;;;;;;;12.45;80.76;99903.53;5062254;28;20048;-77
2021/11/01 10:34:28;;;;;;;67.60;36.55;;;;;;;12.38;80.90;99895.16;5043793;28;19917;-74
2021/11/01 10:36:58;;;;;;;68.07;36.88;;;;;;;12.40;80.76;99890.13;5049687;23;20077;-66
2021/11/01 10:39:54;;;;;;;67.75;36.28;;;;;;;12.39;80.63;99888.56;5026664;28;20044;-65
2021/11/01 10:42:49;;;;;;;57.97;33.10;;;;;;;12.40;80.66;99887.41;5000702;28;20041;-66
2021/11/01 10:46:52;;;;;;;47.30;26.88;;;;;;;12.37;80.18;99877.22;5014109;28;20064;-66
2021/11/01 11:13:17;;;;;;;59.45;33.50;;;;;;;12.27;80.73;99801.38;5014962;28;20041;-66
2021/11/01 11:16:04;;;;;;;52.95;32.97;;;;;;;12.30;81.28;99792.50;5007799;28;20414;-65
2021/11/01 11:43:30;;;;;;;42.22;24.17;;;;;;;12.26;81.34;99718.81;5005846;28;19913;-64
2021/11/01 11:49:27;;;;;;;38.08;22.52;;;;;;;12.09;81.37;99702.00;5014634;28;20049;-65
2021/11/01 11:52:14;;;;;;;41.50;24.77;;;;;;;11.80;84.14;99703.97;5013942;28;20053;-64
2021/11/01 11:55:05;;;;;;;36.35;23.27;;;;;;;11.87;84.92;99697.94;5013505;28;20045;-65
2021/11/01 11:57:59;;;;;;;40.53;25.02;;;;;;;12.05;83.14;99684.75;5014854;28;20053;-65
2021/11/01 12:00:45;;;;;;;34.73;21.43;;;;;;;12.14;82.62;99666.34;5015092;28;20069;-65
2021/11/01 12:03:39;;;;;;;30.63;16.27;;;;;;;12.15;82.27;99665.16;5014712;28;20865;-64
2021/11/01 12:06:44;;;;;;;32.03;19.77;;;;;;;12.06;81.80;99662.63;5008300;28;20061;-64
2021/11/01 12:18:25;;;;;;;28.25;18.00;;;;;;;12.26;81.40;99641.69;5014558;28;20065;-65
2021/11/01 12:21:10;;;;;;;32.13;20.33;;;;;;;12.24;81.81;99636.59;5014972;28;20061;-64
2021/11/01 12:23:55;;;;;;;28.05;16.95;;;;;;;12.34;82.15;99624.38;5014614;28;20413;-64
2021/11/01 12:26:44;;;;;;;18.50;11.32;;;;;;;12.38;81.55;99614.34;5014737;28;20049;-64
2021/11/01 12:29:30;;;;;;;20.55;13.20;;;;;;;12.41;81.29;99608.19;5014236;28;20045;-64
2021/11/01 12:32:15;;;;;;;23.05;14.52;;;;;;;12.40;81.64;99596.47;5012771;28;20066;-65
2021/11/01 12:35:05;;;;;;;16.38;11.48;;;;;;;12.28;81.56;99587.63;5004833;28;20045;-64
2021/11/01 12:37:58;;;;;;;16.25;11.30;;;;;;;12.23;82.47;99594.16;5005843;28;20068;-65
2021/11/01 12:41:10;;;;;;;21.92;12.25;;;;;;;12.18;82.78;99586.25;5014213;28;20041;-65
2021/11/01 12:58:59;;;;;;;13.07;10.32;;;;;;;12.21;83.79;99546.56;5014079;28;20403;-65
2021/11/01 13:01:49;;;;;;;18.92;9.63;;;;;;;12.25;83.03;99539.25;5013485;28;20053;-64
2021/11/01 13:04:38;;;;;;;18.13;9.82;;;;;;;12.13;84.38;99534.72;5013733;28;20529;-64
2021/11/01 13:19:46;;;;;;;12.77;9.27;;;;;;;12.07;86.23;99491.75;4972184;28;20070;-64
2021/11/01 13:22:44;;;;;;;13.48;9.95;;;;;;;12.03;86.23;99482.72;4992445;28;20057;-64
2021/11/01 13:25:42;;;;;;;17.73;9.02;;;;;;;12.09;86.52;99478.56;4993840;28;20058;-64
2021/11/01 13:40:14;;;;;;;9.70;6.68;;;;;;;11.90;88.23;99446.59;5013333;28;20517;-63
2021/11/01 13:42:59;;;;;;;11.57;6.63;;;;;;;11.86;88.02;99434.84;5012532;28;20049;-64
2021/11/01 13:45:52;;;;;;;9.40;6.90;;;;;;;11.85;88.22;99434.03;5013187;28;20061;-64
2021/11/01 13:48:39;;;;;;;11.27;6.63;;;;;;;11.79;88.46;99423.78;5007724;28;20060;-64
2021/11/01 13:51:29;;;;;;;9.15;6.97;;;;;;;11.77;89.35;99418.69;5001694;28;20058;-63
2021/11/01 13:57:15;;;;;;;7.78;5.93;;;;;;;11.70;91.16;99407.59;5007124;28;20526;-63
2021/11/01 14:00:21;;;;;;;7.43;5.20;;;;;;;11.70;90.55;99399.44;5004107;28;20048;-63
2021/11/01 14:27:29;;;;;;;4.18;2.60;;;;;;;11.95;88.48;99321.81;4976410;28;20053;-64
2021/11/01 14:33:51;;;;;;;4.47;2.60;;;;;;;11.85;88.92;99310.69;4992914;28;20045;-63
2021/11/01 14:58:28;;;;;;;4.03;2.28;;;;;;;11.99;89.64;99270.91;5006860;28;20048;-64
2021/11/01 15:07:51;;;;;;;3.55;1.90;;;;;;;12.04;89.92;99253.47;4989097;28;20054;-63
2021/11/01 16:30:13;;;;;;;3.80;3.27;;;;;;;11.93;91.07;99283.25;4999513;28;1561805;-64
2021/11/01 16:32:51;;;;;;;7.82;3.70;;;;;;;11.88;91.59;99286.25;5055222;28;20052;-64
2021/11/01 16:35:41;;;;;;;4.80;3.67;;;;;;;11.94;91.69;99287.53;5046596;28;20048;-64
2021/11/01 16:38:29;;;;;;;7.20;5.05;;;;;;;11.97;91.97;99295.00;5040363;28;20046;-64
2021/11/01 16:41:13;;;;;;;7.03;3.83;;;;;;;11.97;92.23;99289.56;5050530;28;20039;-64
2021/11/01 16:44:02;;;;;;;4.70;3.10;;;;;;;12.03;92.76;99286.53;5050279;28;20051;-64
2021/11/01 16:46:49;;;;;;;5.05;3.55;;;;;;;12.12;92.97;99298.00;5049750;28;20059;-64
2021/11/01 16:49:34;;;;;;;7.50;3.75;;;;;;;12.16;93.12;99286.00;5068127;28;20060;-64
2021/11/01 16:52:20;;;;;;;3.95;2.63;;;;;;;12.23;93.53;99275.25;5062476;28;20060;-64
2021/11/01 16:55:13;;;;;;;5.05;3.25;;;;;;;12.28;93.58;99279.63;5048059;28;20048;-64
2021/11/01 16:58:02;;;;;;;8.95;2.90;;;;;;;12.30;93.50;99269.13;5047951;28;20048;-64
2021/11/01 17:00:59;;;;;;;5.38;3.35;;;;;;;12.34;93.16;99267.28;5048021;28;20391;-64
2021/11/01 17:03:51;;;;;;;4.07;2.97;;;;;;;12.33;93.10;99257.53;5033016;28;20048;-64
2021/11/01 17:06:48;;;;;;;5.28;3.65;;;;;;;12.34;92.96;99259.88;5030643;28;20426;-64
2021/11/01 17:24:58;;;;;;;3.05;2.22;;;;;;;12.52;92.63;99259.41;5022273;28;20274;-64
2021/11/01 17:30:43;;;;;;;4.10;2.90;;;;;;;12.60;92.06;99255.63;5024759;28;20450;-65
2021/11/01 18:53:19;;;;;;;;;;;;;;;12.46;89.91;99043.53;4997404;28;20185;-64
2021/11/01 18:56:08;;;;;;;4.80;2.67;;;;;;;12.51;89.72;99070.47;5048599;28;20332;-64
2021/11/01 18:58:56;;;;;;;2.25;1.50;;;;;;;12.47;89.52;99075.09;5051846;28;20048;-65
2021/11/01 19:01:44;;;;;;;1.83;1.23;;;;;;;12.47;89.17;99086.00;5052432;28;20075;-64
2021/11/01 19:04:36;;;;;;;1.73;1.40;;;;;;;12.41;89.27;99088.25;5041105;28;20524;-65
2021/11/01 20:06:21;;;;;;;8.57;4.55;;;;;;;12.61;85.78;99109.97;5051406;28;20036;-64
2021/11/01 21:26:13;;;;;;;4.05;2.53;;;;;;;12.33;77.12;99088.53;5036598;28;20087;-66
2021/11/01 21:28:58;;;;;;;5.50;4.20;;;;;;;12.22;79.36;99096.53;5044071;28;20406;-65
2021/11/01 21:31:43;;;;;;;4.93;3.90;;;;;;;12.18;79.82;99090.25;5033921;28;20058;-66
2021/11/01 21:35:13;;;;;;;4.78;4.00;;;;;;;12.08;80.68;99101.75;5048492;28;20072;-66
2021/11/01 21:37:37;;;;;;;8.88;5.57;;;;;;;11.98;81.25;99095.00;5031104;28;20057;-64
2021/11/01 21:40:23;;;;;;;7.95;5.93;;;;;;;11.92;81.67;99106.53;5015617;28;20052;-63
2021/11/01 21:43:08;;;;;;;7.53;5.70;;;;;;;11.86;82.68;99103.34;5032923;28;20048;-65
2021/11/01 21:45:53;;;;;;;11.38;8.05;;;;;;;11.85;84.00;99111.88;5010602;28;20053;-65
2021/11/01 21:48:37;;;;;;;8.25;6.18;;;;;;;11.84;84.02;99116.53;5030935;28;20048;-64
2021/11/01 21:51:25;;;;;;;11.02;8.25;;;;;;;11.81;84.14;99106.38;5032813;28;20410;-64
2021/11/01 21:54:33;;;;;;;11.70;8.68;;;;;;;11.80;84.46;99112.94;5033456;28;20048;-64
2021/11/01 21:57:41;;;;;;;8.75;6.45;;;;;;;11.79;84.28;99116.81;5036349;28;20052;-64
2021/11/01 22:21:52;;;;;;;15.15;10.48;;;;;;;11.76;84.50;99108.59;5026841;28;20049;-79
2021/11/01 22:24:55;;;;;;;13.45;9.80;;;;;;;11.80;84.64;99104.78;5022416;28;20049;-77
2021/11/01 22:33:42;;;;;;;22.30;14.30;;;;;;;11.83;85.75;99109.53;5032044;28;20052;-79
2021/11/01 22:42:47;;;;;;;26.73;17.98;;;;;;;11.75;86.70;99110.53;5031563;28;20529;-78
2021/11/01 22:57:35;;;;;;;26.50;16.80;;;;;;;11.70;86.48;99108.06;4973295;28;20138;-80
2021/11/01 23:00:29;;;;;;;25.75;17.45;;;;;;;11.73;86.28;99115.56;5012846;28;20052;-79
2021/11/01 23:03:18;;;;;;;24.08;17.45;;;;;;;11.67;86.42;99103.38;5020747;28;20053;-80
2021/11/01 23:33:27;;;;;;;19.98;15.68;;;;;;;11.50;85.78;99109.25;5032566;28;20056;-80
2021/11/01 23:36:11;;;;;;;20.10;13.88;;;;;;;11.49;85.88;99116.63;5031233;28;20048;-80
2021/11/01 23:38:56;;;;;;;17.23;13.48;;;;;;;11.46;86.02;99102.97;5028670;28;20048;-79
2021/11/01 23:41:49;;;;;;;15.60;10.75;;;;;;;11.42;85.83;99085.78;5018160;28;20048;-80
2021/11/01 23:44:33;;;;;;;19.75;14.07;;;;;;;11.46;85.95;99089.34;5051754;28;20053;-79
2021/11/01 23:47:18;;;;;;;13.65;9.70;;;;;;;11.44;85.65;99097.06;5015133;28;20081;-79
2021/11/01 23:50:03;;;;;;;12.95;9.57;;;;;;;11.42;85.56;99094.75;5015955;28;20049;-79
2021/11/01 23:53:02;;;;;;;18.17;11.65;;;;;;;11.32;85.79;99083.66;5016626;28;20044;-79
2021/11/01 23:55:48;;;;;;;13.23;11.38;;;;;;;11.34;85.30;99087.56;5030216;28;20415;-79
2021/11/01 23:58:34;;;;;;;14.23;10.77;;;;;;;11.35;85.65;99085.63;5023746;28;20065;-79
